Time;durP1;ratioP1;P1;durP2;ratioP2;P2;SDS_P1;SDS_P2;PMS_P1;PMS_P2;Temp;Humidity;BMP_temperature;BMP_pressure;BME280_temperature;BME280_humidity;BME280_pressure;Samples;Min_cycle;Max_cycle;Signal;HPM_P1;HPM_P2
2020/12/30 00:00:27;;;;;;;6.3;4.7;;;5.2;99.9;;;;;;;;;
2020/12/30 00:01:01;;;;;;;6.3;4.7;;;5.2;99.9;;;;;;;;;
2020/12/30 00:02:01;;;;;;;5.83;4.8;;;5.2;99.9;;;;;;;;;
2020/12/30 00:02:40;;;;;;;5.93;5.23;;;5.2;99.9;;;;;;;;;
2020/12/30 00:03:02;;;;;;;5.93;5.23;;;5.2;99.9;;;;;;;;;
2020/12/30 00:03:16;;;;;;;5.93;5.23;;;5.2;99.9;;;;;;;;;
2020/12/30 00:04:01;;;;;;;9.63;4.6;;;5.1;99.9;;;;;;;;;
2020/12/30 00:04:12;;;;;;;9.63;4.6;;;5.1;99.9;;;;;;;;;
2020/12/30 00:04:53;;;;;;;5.03;4.57;;;5.1;99.9;;;;;;;;;
2020/12/30 00:05:01;;;;;;;5.03;4.57;;;5.1;99.9;;;;;;;;;
2020/12/30 00:05:14;;;;;;;5.03;4.57;;;5.1;99.9;;;;;;;;;
2020/12/30 00:05:29;;;;;;;6.63;5.13;;;5.1;99.9;;;;;;;;;
2020/12/30 00:06:01;;;;;;;6.63;5.13;;;5.1;99.9;;;;;;;;;
2020/12/30 00:06:15;;;;;;;6.63;5.13;;;5.1;99.9;;;;;;;;;
2020/12/30 00:06:25;;;;;;;6.63;5.13;;;5.1;99.9;;;;;;;;;
2020/12/30 00:07:01;;;;;;;5.83;4.8;;;5.1;99.9;;;;;;;;;
2020/12/30 00:07:06;;;;;;;5.83;4.8;;;5.1;99.9;;;;;;;;;
2020/12/30 00:07:17;;;;;;;5.83;4.8;;;5.1;99.9;;;;;;;;;
2020/12/30 00:07:27;;;;;;;5.83;4.8;;;5.1;99.9;;;;;;;;;
2020/12/30 00:07:42;;;;;;;6.03;4.47;;;5.1;99.9;;;;;;;;;
2020/12/30 00:08:02;;;;;;;6.03;4.47;;;5.1;99.9;;;;;;;;;
2020/12/30 00:08:13;;;;;;;6.03;4.47;;;5.1;99.9;;;;;;;;;
2020/12/30 00:08:28;;;;;;;6.03;4.47;;;5.1;99.9;;;;;;;;;
2020/12/30 00:08:39;;;;;;;6.07;5.2;;;5.1;99.9;;;;;;;;;
2020/12/30 00:09:01;;;;;;;6.07;5.2;;;5.1;99.9;;;;;;;;;
2020/12/30 00:09:14;;;;;;;6.07;5.2;;;5.1;99.9;;;;;;;;;
2020/12/30 00:09:30;;;;;;;8.97;5.37;;;5;99.9;;;;;;;;;
2020/12/30 00:09:45;;;;;;;8.97;5.37;;;5;99.9;;;;;;;;;
2020/12/30 00:09:55;;;;;;;8.97;5.37;;;5;99.9;;;;;;;;;
2020/12/30 00:10:02;;;;;;;8.97;5.37;;;5;99.9;;;;;;;;;
2020/12/30 00:10:16;;;;;;;8.97;5.37;;;5;99.9;;;;;;;;;
2020/12/30 00:10:26;;;;;;;8.97;5.37;;;5;99.9;;;;;;;;;
2020/12/30 00:10:41;;;;;;;5.17;4.67;;;5.1;99.9;;;;;;;;;
2020/12/30 00:10:52;;;;;;;5.17;4.67;;;5.1;99.9;;;;;;;;;
2020/12/30 00:11:02;;;;;;;5.17;4.67;;;5.1;99.9;;;;;;;;;
2020/12/30 00:11:12;;;;;;;5.17;4.67;;;5.1;99.9;;;;;;;;;
2020/12/30 00:11:27;;;;;;;5.17;4.67;;;5.1;99.9;;;;;;;;;
2020/12/30 00:11:43;;;;;;;6.1;4.87;;;5.1;99.9;;;;;;;;;
2020/12/30 00:11:58;;;;;;;6.1;4.87;;;5.1;99.9;;;;;;;;;
2020/12/30 00:12:02;;;;;;;6.1;4.87;;;5.1;99.9;;;;;;;;;
2020/12/30 00:12:08;;;;;;;6.1;4.87;;;5.1;99.9;;;;;;;;;
2020/12/30 00:12:14;;;;;;;6.1;4.87;;;5.1;99.9;;;;;;;;;
2020/12/30 00:12:29;;;;;;;6.1;4.87;;;5.1;99.9;;;;;;;;;
2020/12/30 00:12:39;;;;;;;6.2;4.97;;;5.1;99.9;;;;;;;;;
2020/12/30 00:12:54;;;;;;;6.2;4.97;;;5.1;99.9;;;;;;;;;
2020/12/30 00:13:02;;;;;;;6.2;4.97;;;5.1;99.9;;;;;;;;;
2020/12/30 00:13:05;;;;;;;6.2;4.97;;;5.1;99.9;;;;;;;;;
2020/12/30 00:13:16;;;;;;;6.2;4.97;;;5.1;99.9;;;;;;;;;
2020/12/30 00:13:25;;;;;;;6.2;4.97;;;5.1;99.9;;;;;;;;;
2020/12/30 00:13:41;;;;;;;6.07;4.77;;;5;99.9;;;;;;;;;
2020/12/30 00:13:56;;;;;;;6.07;4.77;;;5;99.9;;;;;;;;;
2020/12/30 00:14:02;;;;;;;6.07;4.77;;;5;99.9;;;;;;;;;
2020/12/30 00:14:11;;;;;;;6.07;4.77;;;5;99.9;;;;;;;;;
2020/12/30 00:14:16;;;;;;;6.07;4.77;;;5;99.9;;;;;;;;;
2020/12/30 00:14:27;;;;;;;6.07;4.77;;;5;99.9;;;;;;;;;
2020/12/30 00:14:42;;;;;;;5.5;4.83;;;5.1;99.9;;;;;;;;;
2020/12/30 00:14:52;;;;;;;5.5;4.83;;;5.1;99.9;;;;;;;;;
2020/12/30 00:15:02;;;;;;;5.5;4.83;;;5.1;99.9;;;;;;;;;
2020/12/30 00:15:08;;;;;;;5.5;4.83;;;5.1;99.9;;;;;;;;;
2020/12/30 00:15:13;;;;;;;5.5;4.83;;;5.1;99.9;;;;;;;;;
2020/12/30 00:15:28;;;;;;;5.5;4.83;;;5.1;99.9;;;;;;;;;
2020/12/30 00:15:38;;;;;;;5.37;4.7;;;5;99.9;;;;;;;;;
2020/12/30 00:15:54;;;;;;;5.37;4.7;;;5;99.9;;;;;;;;;
2020/12/30 00:16:01;;;;;;;5.37;4.7;;;5;99.9;;;;;;;;;
2020/12/30 00:16:09;;;;;;;5.37;4.7;;;5;99.9;;;;;;;;;
2020/12/30 00:16:14;;;;;;;5.37;4.7;;;5;99.9;;;;;;;;;
2020/12/30 00:16:29;;;;;;;5.37;4.7;;;5;99.9;;;;;;;;;
2020/12/30 00:16:40;;;;;;;6.33;4.9;;;5.1;99.9;;;;;;;;;
2020/12/30 00:16:55;;;;;;;6.33;4.9;;;5.1;99.9;;;;;;;;;
2020/12/30 00:17:02;;;;;;;6.33;4.9;;;5.1;99.9;;;;;;;;;
2020/12/30 00:17:05;;;;;;;6.33;4.9;;;5.1;99.9;;;;;;;;;
2020/12/30 00:17:16;;;;;;;6.33;4.9;;;5.1;99.9;;;;;;;;;
2020/12/30 00:17:26;;;;;;;6.33;4.9;;;5.1;99.9;;;;;;;;;
2020/12/30 00:17:41;;;;;;;5.9;4.53;;;5.1;99.9;;;;;;;;;
2020/12/30 00:17:54;;;;;;;5.9;4.53;;;5.1;99.9;;;;;;;;;
2020/12/30 00:18:01;;;;;;;5.9;4.53;;;5.1;99.9;;;;;;;;;
2020/12/30 00:18:07;;;;;;;5.9;4.53;;;5.1;99.9;;;;;;;;;
2020/12/30 00:18:12;;;;;;;5.9;4.53;;;5.1;99.9;;;;;;;;;
2020/12/30 00:18:27;;;;;;;5.9;4.53;;;5.1;99.9;;;;;;;;;
2020/12/30 00:18:43;;;;;;;5.27;4.77;;;5;99.9;;;;;;;;;
2020/12/30 00:18:53;;;;;;;5.27;4.77;;;5;99.9;;;;;;;;;
2020/12/30 00:19:02;;;;;;;5.27;4.77;;;5;99.9;;;;;;;;;
2020/12/30 00:19:08;;;;;;;5.27;4.77;;;5;99.9;;;;;;;;;
2020/12/30 00:19:13;;;;;;;5.27;4.77;;;5;99.9;;;;;;;;;
2020/12/30 00:19:29;;;;;;;5.27;4.77;;;5;99.9;;;;;;;;;
2020/12/30 00:19:39;;;;;;;6.57;4.9;;;5;99.9;;;;;;;;;
2020/12/30 00:19:54;;;;;;;6.57;4.9;;;5;99.9;;;;;;;;;
2020/12/30 00:20:02;;;;;;;6.57;4.9;;;5;99.9;;;;;;;;;
2020/12/30 00:20:05;;;;;;;6.57;4.9;;;5;99.9;;;;;;;;;
2020/12/30 00:20:16;;;;;;;6.57;4.9;;;5;99.9;;;;;;;;;
2020/12/30 00:20:25;;;;;;;6.57;4.9;;;5;99.9;;;;;;;;;
2020/12/30 00:20:40;;;;;;;9.4;5.7;;;5;99.9;;;;;;;;;
2020/12/30 00:20:56;;;;;;;9.4;5.7;;;5;99.9;;;;;;;;;
2020/12/30 00:21:01;;;;;;;9.4;5.7;;;5;99.9;;;;;;;;;
2020/12/30 00:21:06;;;;;;;9.4;5.7;;;5;99.9;;;;;;;;;
2020/12/30 00:21:16;;;;;;;9.4;5.7;;;5;99.9;;;;;;;;;
2020/12/30 00:21:27;;;;;;;9.4;5.7;;;5;99.9;;;;;;;;;
2020/12/30 00:21:44;;;;;;;6.1;4.9;;;5.1;99.9;;;;;;;;;
2020/12/30 00:21:52;;;;;;;6.1;4.9;;;5.1;99.9;;;;;;;;;
2020/12/30 00:22:02;;;;;;;6.1;4.9;;;5.1;99.9;;;;;;;;;
2020/12/30 00:22:07;;;;;;;6.1;4.9;;;5.1;99.9;;;;;;;;;
2020/12/30 00:22:12;;;;;;;6.1;4.9;;;5.1;99.9;;;;;;;;;
2020/12/30 00:22:28;;;;;;;6.1;4.9;;;5.1;99.9;;;;;;;;;
2020/12/30 00:22:38;;;;;;;5.87;4.83;;;5;99.9;;;;;;;;;
2020/12/30 00:22:54;;;;;;;5.87;4.83;;;5;99.9;;;;;;;;;
2020/12/30 00:23:01;;;;;;;5.87;4.83;;;5;99.9;;;;;;;;;
2020/12/30 00:23:09;;;;;;;5.87;4.83;;;5;99.9;;;;;;;;;
2020/12/30 00:23:14;;;;;;;5.87;4.83;;;5;99.9;;;;;;;;;
2020/12/30 00:23:29;;;;;;;5.87;4.83;;;5;99.9;;;;;;;;;
2020/12/30 00:23:40;;;;;;;8.77;4.97;;;5;99.9;;;;;;;;;
2020/12/30 00:23:55;;;;;;;8.77;4.97;;;5;99.9;;;;;;;;;
2020/12/30 00:24:02;;;;;;;8.77;4.97;;;5;99.9;;;;;;;;;
2020/12/30 00:24:05;;;;;;;8.77;4.97;;;5;99.9;;;;;;;;;
2020/12/30 00:24:15;;;;;;;8.77;4.97;;;5;99.9;;;;;;;;;
2020/12/30 00:24:26;;;;;;;8.77;4.97;;;5;99.9;;;;;;;;;
2020/12/30 00:24:41;;;;;;;8.97;5.23;;;5.1;99.9;;;;;;;;;
2020/12/30 00:24:51;;;;;;;8.97;5.23;;;5.1;99.9;;;;;;;;;
2020/12/30 00:25:02;;;;;;;8.97;5.23;;;5.1;99.9;;;;;;;;;
2020/12/30 00:25:07;;;;;;;8.97;5.23;;;5.1;99.9;;;;;;;;;
2020/12/30 00:25:12;;;;;;;8.97;5.23;;;5.1;99.9;;;;;;;;;
2020/12/30 00:25:27;;;;;;;8.97;5.23;;;5.1;99.9;;;;;;;;;
2020/12/30 00:25:42;;;;;;;7.13;5.13;;;5;99.9;;;;;;;;;
2020/12/30 00:25:53;;;;;;;7.13;5.13;;;5;99.9;;;;;;;;;
2020/12/30 00:26:02;;;;;;;7.13;5.13;;;5;99.9;;;;;;;;;
2020/12/30 00:26:08;;;;;;;7.13;5.13;;;5;99.9;;;;;;;;;
2020/12/30 00:26:13;;;;;;;7.13;5.13;;;5;99.9;;;;;;;;;
2020/12/30 00:26:29;;;;;;;7.13;5.13;;;5;99.9;;;;;;;;;
2020/12/30 00:26:39;;;;;;;5.77;4.97;;;5;99.9;;;;;;;;;
2020/12/30 00:26:54;;;;;;;5.77;4.97;;;5;99.9;;;;;;;;;
2020/12/30 00:27:02;;;;;;;5.77;4.97;;;5;99.9;;;;;;;;;
2020/12/30 00:27:04;;;;;;;5.77;4.97;;;5;99.9;;;;;;;;;
2020/12/30 00:27:15;;;;;;;5.77;4.97;;;5;99.9;;;;;;;;;
2020/12/30 00:27:25;;;;;;;5.77;4.97;;;5;99.9;;;;;;;;;
2020/12/30 00:27:40;;;;;;;6.33;4.73;;;5;99.9;;;;;;;;;
2020/12/30 00:27:56;;;;;;;6.33;4.73;;;5;99.9;;;;;;;;;
2020/12/30 00:28:01;;;;;;;6.33;4.73;;;5;99.9;;;;;;;;;
2020/12/30 00:28:06;;;;;;;6.33;4.73;;;5;99.9;;;;;;;;;
2020/12/30 00:28:16;;;;;;;6.33;4.73;;;5;99.9;;;;;;;;;
2020/12/30 00:28:31;;;;;;;6.33;4.73;;;5;99.9;;;;;;;;;
2020/12/30 00:28:42;;;;;;;5.03;4.47;;;5;99.9;;;;;;;;;
2020/12/30 00:28:52;;;;;;;5.03;4.47;;;5;99.9;;;;;;;;;
2020/12/30 00:29:02;;;;;;;5.03;4.47;;;5;99.9;;;;;;;;;
2020/12/30 00:29:07;;;;;;;5.03;4.47;;;5;99.9;;;;;;;;;
2020/12/30 00:29:12;;;;;;;5.03;4.47;;;5;99.9;;;;;;;;;
2020/12/30 00:29:28;;;;;;;5.03;4.47;;;5;99.9;;;;;;;;;
2020/12/30 00:29:38;;;;;;;6.23;4.6;;;5;99.9;;;;;;;;;
2020/12/30 00:29:53;;;;;;;6.23;4.6;;;5;99.9;;;;;;;;;
2020/12/30 00:30:02;;;;;;;6.23;4.6;;;5;99.9;;;;;;;;;
2020/12/30 00:30:09;;;;;;;6.23;4.6;;;5;99.9;;;;;;;;;
2020/12/30 00:30:14;;;;;;;6.23;4.6;;;5;99.9;;;;;;;;;
2020/12/30 00:30:29;;;;;;;6.23;4.6;;;5;99.9;;;;;;;;;
2020/12/30 00:30:45;;;;;;;6.43;5;;;4.9;99.9;;;;;;;;;
2020/12/30 00:30:55;;;;;;;6.43;5;;;4.9;99.9;;;;;;;;;
2020/12/30 00:31:03;;;;;;;6.43;5;;;4.9;99.9;;;;;;;;;
2020/12/30 00:31:05;;;;;;;6.43;5;;;4.9;99.9;;;;;;;;;
2020/12/30 00:31:15;;;;;;;6.43;5;;;4.9;99.9;;;;;;;;;
2020/12/30 00:31:25;;;;;;;6.43;5;;;4.9;99.9;;;;;;;;;
2020/12/30 00:31:41;;;;;;;7.23;4.93;;;4.9;99.9;;;;;;;;;
2020/12/30 00:31:51;;;;;;;7.23;4.93;;;4.9;99.9;;;;;;;;;
2020/12/30 00:32:02;;;;;;;7.23;4.93;;;4.9;99.9;;;;;;;;;
2020/12/30 00:32:07;;;;;;;7.23;4.93;;;4.9;99.9;;;;;;;;;
2020/12/30 00:32:17;;;;;;;7.23;4.93;;;4.9;99.9;;;;;;;;;
2020/12/30 00:32:27;;;;;;;7.23;4.93;;;4.9;99.9;;;;;;;;;
2020/12/30 00:32:42;;;;;;;7.2;4.9;;;4.9;99.9;;;;;;;;;
2020/12/30 00:32:58;;;;;;;7.2;4.9;;;4.9;99.9;;;;;;;;;
2020/12/30 00:33:01;;;;;;;7.2;4.9;;;4.9;99.9;;;;;;;;;
2020/12/30 00:33:08;;;;;;;7.2;4.9;;;4.9;99.9;;;;;;;;;
2020/12/30 00:33:13;;;;;;;7.2;4.9;;;4.9;99.9;;;;;;;;;
2020/12/30 00:33:28;;;;;;;7.2;4.9;;;4.9;99.9;;;;;;;;;
2020/12/30 00:33:39;;;;;;;5.53;4.13;;;4.9;99.9;;;;;;;;;
2020/12/30 00:33:54;;;;;;;5.53;4.13;;;4.9;99.9;;;;;;;;;
2020/12/30 00:34:02;;;;;;;5.53;4.13;;;4.9;99.9;;;;;;;;;
2020/12/30 00:34:04;;;;;;;5.53;4.13;;;4.9;99.9;;;;;;;;;
2020/12/30 00:34:14;;;;;;;5.53;4.13;;;4.9;99.9;;;;;;;;;
2020/12/30 00:34:30;;;;;;;5.53;4.13;;;4.9;99.9;;;;;;;;;
2020/12/30 00:34:40;;;;;;;4.9;4.4;;;5;99.9;;;;;;;;;
2020/12/30 00:34:55;;;;;;;4.9;4.4;;;5;99.9;;;;;;;;;
2020/12/30 00:35:02;;;;;;;4.9;4.4;;;5;99.9;;;;;;;;;
2020/12/30 00:35:11;;;;;;;4.9;4.4;;;5;99.9;;;;;;;;;
2020/12/30 00:35:16;;;;;;;4.9;4.4;;;5;99.9;;;;;;;;;
2020/12/30 00:35:26;;;;;;;4.9;4.4;;;5;99.9;;;;;;;;;
2020/12/30 00:35:42;;;;;;;6.67;4.63;;;4.9;99.9;;;;;;;;;
2020/12/30 00:35:52;;;;;;;6.67;4.63;;;4.9;99.9;;;;;;;;;
2020/12/30 00:36:02;;;;;;;6.67;4.63;;;4.9;99.9;;;;;;;;;
2020/12/30 00:36:07;;;;;;;6.67;4.63;;;4.9;99.9;;;;;;;;;
2020/12/30 00:36:12;;;;;;;6.67;4.63;;;4.9;99.9;;;;;;;;;
2020/12/30 00:36:28;;;;;;;6.67;4.63;;;4.9;99.9;;;;;;;;;
2020/12/30 00:36:43;;;;;;;7.3;4.83;;;4.9;99.9;;;;;;;;;
2020/12/30 00:36:53;;;;;;;7.3;4.83;;;4.9;99.9;;;;;;;;;
2020/12/30 00:37:03;;;;;;;7.3;4.83;;;4.9;99.9;;;;;;;;;
2020/12/30 00:37:09;;;;;;;7.3;4.83;;;4.9;99.9;;;;;;;;;
2020/12/30 00:37:14;;;;;;;7.3;4.83;;;4.9;99.9;;;;;;;;;
2020/12/30 00:37:29;;;;;;;7.3;4.83;;;4.9;99.9;;;;;;;;;
2020/12/30 00:37:39;;;;;;;5.1;4.6;;;4.9;99.9;;;;;;;;;
2020/12/30 00:37:55;;;;;;;5.1;4.6;;;4.9;99.9;;;;;;;;;
2020/12/30 00:38:01;;;;;;;5.1;4.6;;;4.9;99.9;;;;;;;;;
2020/12/30 00:38:05;;;;;;;5.1;4.6;;;4.9;99.9;;;;;;;;;
2020/12/30 00:38:15;;;;;;;5.1;4.6;;;4.9;99.9;;;;;;;;;
2020/12/30 00:38:25;;;;;;;5.1;4.6;;;4.9;99.9;;;;;;;;;
2020/12/30 00:38:41;;;;;;;6.3;4.77;;;4.9;99.9;;;;;;;;;
2020/12/30 00:38:56;;;;;;;6.3;4.77;;;4.9;99.9;;;;;;;;;
2020/12/30 00:39:02;;;;;;;6.3;4.77;;;4.9;99.9;;;;;;;;;
2020/12/30 00:39:06;;;;;;;6.3;4.77;;;4.9;99.9;;;;;;;;;
2020/12/30 00:39:17;;;;;;;6.3;4.77;;;4.9;99.9;;;;;;;;;
2020/12/30 00:39:27;;;;;;;6.3;4.77;;;4.9;99.9;;;;;;;;;
2020/12/30 00:39:42;;;;;;;5.83;4.63;;;4.9;99.9;;;;;;;;;
2020/12/30 00:39:52;;;;;;;5.83;4.63;;;4.9;99.9;;;;;;;;;
2020/12/30 00:40:01;;;;;;;5.83;4.63;;;4.9;99.9;;;;;;;;;
2020/12/30 00:40:08;;;;;;;5.83;4.63;;;4.9;99.9;;;;;;;;;
2020/12/30 00:40:13;;;;;;;5.83;4.63;;;4.9;99.9;;;;;;;;;
2020/12/30 00:40:28;;;;;;;5.83;4.63;;;4.9;99.9;;;;;;;;;
2020/12/30 00:40:39;;;;;;;5.2;4.67;;;5;99.9;;;;;;;;;
2020/12/30 00:40:54;;;;;;;5.2;4.67;;;5;99.9;;;;;;;;;
2020/12/30 00:41:02;;;;;;;5.2;4.67;;;5;99.9;;;;;;;;;
2020/12/30 00:41:09;;;;;;;5.2;4.67;;;5;99.9;;;;;;;;;
2020/12/30 00:41:14;;;;;;;5.2;4.67;;;5;99.9;;;;;;;;;
2020/12/30 00:41:30;;;;;;;5.2;4.67;;;5;99.9;;;;;;;;;
2020/12/30 00:41:40;;;;;;;5.83;4.77;;;4.9;99.9;;;;;;;;;
2020/12/30 00:41:56;;;;;;;5.83;4.77;;;4.9;99.9;;;;;;;;;
2020/12/30 00:42:02;;;;;;;5.83;4.77;;;4.9;99.9;;;;;;;;;
2020/12/30 00:42:06;;;;;;;5.83;4.77;;;4.9;99.9;;;;;;;;;
2020/12/30 00:42:16;;;;;;;5.83;4.77;;;4.9;99.9;;;;;;;;;
2020/12/30 00:42:26;;;;;;;5.83;4.77;;;4.9;99.9;;;;;;;;;
2020/12/30 00:42:41;;;;;;;5.5;4.5;;;4.9;99.9;;;;;;;;;
2020/12/30 00:42:52;;;;;;;5.5;4.5;;;4.9;99.9;;;;;;;;;
2020/12/30 00:43:02;;;;;;;5.5;4.5;;;4.9;99.9;;;;;;;;;
2020/12/30 00:43:07;;;;;;;5.5;4.5;;;4.9;99.9;;;;;;;;;
2020/12/30 00:43:12;;;;;;;5.5;4.5;;;4.9;99.9;;;;;;;;;
2020/12/30 00:43:27;;;;;;;5.5;4.5;;;4.9;99.9;;;;;;;;;
2020/12/30 00:43:43;;;;;;;7.17;4.83;;;4.9;99.9;;;;;;;;;
2020/12/30 00:43:53;;;;;;;7.17;4.83;;;4.9;99.9;;;;;;;;;
2020/12/30 00:44:02;;;;;;;7.17;4.83;;;4.9;99.9;;;;;;;;;
2020/12/30 00:44:09;;;;;;;7.17;4.83;;;4.9;99.9;;;;;;;;;
2020/12/30 00:44:13;;;;;;;7.17;4.83;;;4.9;99.9;;;;;;;;;
2020/12/30 00:44:29;;;;;;;7.17;4.83;;;4.9;99.9;;;;;;;;;
2020/12/30 00:44:39;;;;;;;7.17;4.83;;;4.9;99.9;;;;;;;;;
2020/12/30 00:44:54;;;;;;;6.2;4.53;;;4.9;99.9;;;;;;;;;
2020/12/30 00:45:02;;;;;;;6.2;4.53;;;4.9;99.9;;;;;;;;;
2020/12/30 00:45:05;;;;;;;6.2;4.53;;;4.9;99.9;;;;;;;;;
2020/12/30 00:45:15;;;;;;;6.2;4.53;;;4.9;99.9;;;;;;;;;
2020/12/30 00:45:25;;;;;;;6.2;4.53;;;4.9;99.9;;;;;;;;;
2020/12/30 00:45:41;;;;;;;8.13;4.77;;;4.9;99.9;;;;;;;;;
2020/12/30 00:45:56;;;;;;;8.13;4.77;;;4.9;99.9;;;;;;;;;
2020/12/30 00:46:02;;;;;;;8.13;4.77;;;4.9;99.9;;;;;;;;;
2020/12/30 00:46:06;;;;;;;8.13;4.77;;;4.9;99.9;;;;;;;;;
2020/12/30 00:46:17;;;;;;;8.13;4.77;;;4.9;99.9;;;;;;;;;
2020/12/30 00:46:27;;;;;;;8.13;4.77;;;4.9;99.9;;;;;;;;;
2020/12/30 00:46:42;;;;;;;6.17;5.43;;;4.9;99.9;;;;;;;;;
2020/12/30 00:46:52;;;;;;;6.17;5.43;;;4.9;99.9;;;;;;;;;
2020/12/30 00:47:02;;;;;;;6.17;5.43;;;4.9;99.9;;;;;;;;;
2020/12/30 00:47:08;;;;;;;6.17;5.43;;;4.9;99.9;;;;;;;;;
2020/12/30 00:47:13;;;;;;;6.17;5.43;;;4.9;99.9;;;;;;;;;
2020/12/30 00:47:28;;;;;;;6.17;5.43;;;4.9;99.9;;;;;;;;;
2020/12/30 00:47:38;;;;;;;6.17;5.43;;;4.9;99.9;;;;;;;;;
2020/12/30 00:47:54;;;;;;;6.4;5.13;;;4.8;99.9;;;;;;;;;
2020/12/30 00:48:01;;;;;;;6.4;5.13;;;4.8;99.9;;;;;;;;;
2020/12/30 00:48:09;;;;;;;6.4;5.13;;;4.8;99.9;;;;;;;;;
2020/12/30 00:48:14;;;;;;;6.4;5.13;;;4.8;99.9;;;;;;;;;
2020/12/30 00:48:29;;;;;;;6.4;5.13;;;4.8;99.9;;;;;;;;;
2020/12/30 00:48:40;;;;;;;6.4;5.13;;;4.8;99.9;;;;;;;;;
2020/12/30 00:48:55;;;;;;;6.13;5.53;;;4.9;99.9;;;;;;;;;
2020/12/30 00:49:02;;;;;;;6.13;5.53;;;4.9;99.9;;;;;;;;;
2020/12/30 00:49:05;;;;;;;6.13;5.53;;;4.9;99.9;;;;;;;;;
2020/12/30 00:49:21;;;;;;;6.13;5.53;;;4.9;99.9;;;;;;;;;
2020/12/30 00:49:26;;;;;;;6.13;5.53;;;4.9;99.9;;;;;;;;;
2020/12/30 00:49:41;;;;;;;6;5;;;4.9;99.9;;;;;;;;;
2020/12/30 00:49:51;;;;;;;6;5;;;4.9;99.9;;;;;;;;;
2020/12/30 00:50:01;;;;;;;6;5;;;4.9;99.9;;;;;;;;;
2020/12/30 00:50:07;;;;;;;6;5;;;4.9;99.9;;;;;;;;;
2020/12/30 00:50:12;;;;;;;6;5;;;4.9;99.9;;;;;;;;;
2020/12/30 00:50:27;;;;;;;6;5;;;4.9;99.9;;;;;;;;;
2020/12/30 00:50:43;;;;;;;6.67;4.9;;;4.9;99.9;;;;;;;;;
2020/12/30 00:50:53;;;;;;;6.67;4.9;;;4.9;99.9;;;;;;;;;
2020/12/30 00:51:02;;;;;;;6.67;4.9;;;4.9;99.9;;;;;;;;;
2020/12/30 00:51:09;;;;;;;6.67;4.9;;;4.9;99.9;;;;;;;;;
2020/12/30 00:51:13;;;;;;;6.67;4.9;;;4.9;99.9;;;;;;;;;
2020/12/30 00:51:34;;;;;;;6.67;4.9;;;4.9;99.9;;;;;;;;;
2020/12/30 00:51:39;;;;;;;6.67;4.9;;;4.9;99.9;;;;;;;;;
2020/12/30 00:51:54;;;;;;;5.2;4.43;;;4.9;99.9;;;;;;;;;
2020/12/30 00:52:02;;;;;;;5.2;4.43;;;4.9;99.9;;;;;;;;;
2020/12/30 00:52:05;;;;;;;5.2;4.43;;;4.9;99.9;;;;;;;;;
2020/12/30 00:52:15;;;;;;;5.2;4.43;;;4.9;99.9;;;;;;;;;
2020/12/30 00:52:26;;;;;;;5.2;4.43;;;4.9;99.9;;;;;;;;;
2020/12/30 00:52:40;;;;;;;5.2;4.43;;;4.9;99.9;;;;;;;;;
2020/12/30 00:52:56;;;;;;;6.2;4.53;;;4.9;99.9;;;;;;;;;
2020/12/30 00:53:01;;;;;;;6.2;4.53;;;4.9;99.9;;;;;;;;;
2020/12/30 00:53:06;;;;;;;6.2;4.53;;;4.9;99.9;;;;;;;;;
2020/12/30 00:53:16;;;;;;;6.2;4.53;;;4.9;99.9;;;;;;;;;
2020/12/30 00:53:26;;;;;;;6.2;4.53;;;4.9;99.9;;;;;;;;;
2020/12/30 00:53:47;;;;;;;5.97;4.9;;;5;99.9;;;;;;;;;
2020/12/30 00:53:52;;;;;;;5.97;4.9;;;5;99.9;;;;;;;;;
2020/12/30 00:54:02;;;;;;;5.97;4.9;;;5;99.9;;;;;;;;;
2020/12/30 00:54:07;;;;;;;5.97;4.9;;;5;99.9;;;;;;;;;
2020/12/30 00:54:12;;;;;;;5.97;4.9;;;5;99.9;;;;;;;;;
2020/12/30 00:54:28;;;;;;;5.97;4.9;;;5;99.9;;;;;;;;;
2020/12/30 00:54:38;;;;;;;5.97;4.9;;;5;99.9;;;;;;;;;
2020/12/30 00:54:54;;;;;;;6.93;5.2;;;4.8;99.9;;;;;;;;;
2020/12/30 00:55:01;;;;;;;6.93;5.2;;;4.8;99.9;;;;;;;;;
2020/12/30 00:55:09;;;;;;;6.93;5.2;;;4.8;99.9;;;;;;;;;
2020/12/30 00:55:14;;;;;;;6.93;5.2;;;4.8;99.9;;;;;;;;;
2020/12/30 00:55:29;;;;;;;6.93;5.2;;;4.8;99.9;;;;;;;;;
2020/12/30 00:55:40;;;;;;;6.93;5.2;;;4.8;99.9;;;;;;;;;
2020/12/30 00:56:00;;;;;;;6.97;5.4;;;4.8;99.9;;;;;;;;;
2020/12/30 00:56:02;;;;;;;6.97;5.4;;;4.8;99.9;;;;;;;;;
2020/12/30 00:56:05;;;;;;;6.97;5.4;;;4.8;99.9;;;;;;;;;
2020/12/30 00:56:15;;;;;;;6.97;5.4;;;4.8;99.9;;;;;;;;;
2020/12/30 00:56:26;;;;;;;6.97;5.4;;;4.8;99.9;;;;;;;;;
2020/12/30 00:56:41;;;;;;;6.97;5.4;;;4.8;99.9;;;;;;;;;
2020/12/30 00:56:51;;;;;;;6.13;5.23;;;4.7;99.9;;;;;;;;;
2020/12/30 00:57:02;;;;;;;6.13;5.23;;;4.7;99.9;;;;;;;;;
2020/12/30 00:57:07;;;;;;;6.13;5.23;;;4.7;99.9;;;;;;;;;
2020/12/30 00:57:12;;;;;;;6.13;5.23;;;4.7;99.9;;;;;;;;;
2020/12/30 00:57:27;;;;;;;6.13;5.23;;;4.7;99.9;;;;;;;;;
2020/12/30 00:57:42;;;;;;;6.13;5.23;;;4.7;99.9;;;;;;;;;
2020/12/30 00:57:53;;;;;;;8.8;5.43;;;4.7;99.9;;;;;;;;;
2020/12/30 00:58:02;;;;;;;8.8;5.43;;;4.7;99.9;;;;;;;;;
2020/12/30 00:58:13;;;;;;;8.8;5.43;;;4.7;99.9;;;;;;;;;
2020/12/30 00:58:13;;;;;;;8.8;5.43;;;4.7;99.9;;;;;;;;;
2020/12/30 00:58:29;;;;;;;8.8;5.43;;;4.7;99.9;;;;;;;;;
2020/12/30 00:58:39;;;;;;;8.8;5.43;;;4.7;99.9;;;;;;;;;
2020/12/30 00:58:54;;;;;;;8;5.33;;;4.8;99.9;;;;;;;;;
2020/12/30 00:59:02;;;;;;;8;5.33;;;4.8;99.9;;;;;;;;;
2020/12/30 00:59:04;;;;;;;8;5.33;;;4.8;99.9;;;;;;;;;
2020/12/30 00:59:15;;;;;;;8;5.33;;;4.8;99.9;;;;;;;;;
2020/12/30 00:59:25;;;;;;;8;5.33;;;4.8;99.9;;;;;;;;;
2020/12/30 00:59:40;;;;;;;8;5.33;;;4.8;99.9;;;;;;;;;
2020/12/30 00:59:56;;;;;;;6.73;5;;;4.8;99.9;;;;;;;;;
2020/12/30 01:00:01;;;;;;;6.73;5;;;4.8;99.9;;;;;;;;;
2020/12/30 01:00:06;;;;;;;6.73;5;;;4.8;99.9;;;;;;;;;
2020/12/30 01:00:16;;;;;;;6.73;5;;;4.8;99.9;;;;;;;;;
2020/12/30 01:00:26;;;;;;;6.73;5;;;4.8;99.9;;;;;;;;;
2020/12/30 01:00:42;;;;;;;6.73;5;;;4.8;99.9;;;;;;;;;
2020/12/30 01:00:52;;;;;;;5.93;4.77;;;4.8;99.9;;;;;;;;;
2020/12/30 01:01:02;;;;;;;5.93;4.77;;;4.8;99.9;;;;;;;;;
2020/12/30 01:01:07;;;;;;;5.93;4.77;;;4.8;99.9;;;;;;;;;
2020/12/30 01:01:13;;;;;;;5.93;4.77;;;4.8;99.9;;;;;;;;;
2020/12/30 01:01:28;;;;;;;5.93;4.77;;;4.8;99.9;;;;;;;;;
2020/12/30 01:01:38;;;;;;;5.93;4.77;;;4.8;99.9;;;;;;;;;
2020/12/30 01:01:53;;;;;;;6.73;4.9;;;4.8;99.9;;;;;;;;;
2020/12/30 01:02:02;;;;;;;6.73;4.9;;;4.8;99.9;;;;;;;;;
2020/12/30 01:02:09;;;;;;;6.73;4.9;;;4.8;99.9;;;;;;;;;
2020/12/30 01:02:14;;;;;;;6.73;4.9;;;4.8;99.9;;;;;;;;;
2020/12/30 01:02:29;;;;;;;6.73;4.9;;;4.8;99.9;;;;;;;;;
2020/12/30 01:02:39;;;;;;;6.73;4.9;;;4.8;99.9;;;;;;;;;
2020/12/30 01:02:55;;;;;;;7.57;4.1;;;4.8;99.9;;;;;;;;;
2020/12/30 01:03:02;;;;;;;7.57;4.1;;;4.8;99.9;;;;;;;;;
2020/12/30 01:03:05;;;;;;;7.57;4.1;;;4.8;99.9;;;;;;;;;
2020/12/30 01:03:15;;;;;;;7.57;4.1;;;4.8;99.9;;;;;;;;;
2020/12/30 01:03:26;;;;;;;7.57;4.1;;;4.8;99.9;;;;;;;;;
2020/12/30 01:03:41;;;;;;;7.57;4.1;;;4.8;99.9;;;;;;;;;
2020/12/30 01:03:51;;;;;;;6.5;4.93;;;4.9;99.9;;;;;;;;;
2020/12/30 01:04:02;;;;;;;6.5;4.93;;;4.9;99.9;;;;;;;;;
2020/12/30 01:04:06;;;;;;;6.5;4.93;;;4.9;99.9;;;;;;;;;
2020/12/30 01:04:17;;;;;;;6.5;4.93;;;4.9;99.9;;;;;;;;;
2020/12/30 01:04:27;;;;;;;6.5;4.93;;;4.9;99.9;;;;;;;;;
2020/12/30 01:04:42;;;;;;;6.5;4.93;;;4.9;99.9;;;;;;;;;
2020/12/30 01:04:53;;;;;;;7.57;5.13;;;4.9;99.9;;;;;;;;;
2020/12/30 01:05:01;;;;;;;7.57;5.13;;;4.9;99.9;;;;;;;;;
2020/12/30 01:05:08;;;;;;;7.57;5.13;;;4.9;99.9;;;;;;;;;
2020/12/30 01:05:13;;;;;;;7.57;5.13;;;4.9;99.9;;;;;;;;;
2020/12/30 01:05:28;;;;;;;7.57;5.13;;;4.9;99.9;;;;;;;;;
2020/12/30 01:05:39;;;;;;;7.57;5.13;;;4.9;99.9;;;;;;;;;
2020/12/30 01:05:55;;;;;;;5.83;5.2;;;4.9;99.9;;;;;;;;;
2020/12/30 01:06:02;;;;;;;5.83;5.2;;;4.9;99.9;;;;;;;;;
2020/12/30 01:06:04;;;;;;;5.83;5.2;;;4.9;99.9;;;;;;;;;
2020/12/30 01:06:14;;;;;;;5.83;5.2;;;4.9;99.9;;;;;;;;;
2020/12/30 01:06:30;;;;;;;5.83;5.2;;;4.9;99.9;;;;;;;;;
2020/12/30 01:06:40;;;;;;;5.83;5.2;;;4.9;99.9;;;;;;;;;
2020/12/30 01:06:55;;;;;;;8.53;5.5;;;4.8;99.9;;;;;;;;;
2020/12/30 01:07:02;;;;;;;8.53;5.5;;;4.8;99.9;;;;;;;;;
2020/12/30 01:07:06;;;;;;;8.53;5.5;;;4.8;99.9;;;;;;;;;
2020/12/30 01:07:18;;;;;;;8.53;5.5;;;4.8;99.9;;;;;;;;;
2020/12/30 01:07:26;;;;;;;8.53;5.5;;;4.8;99.9;;;;;;;;;
2020/12/30 01:07:41;;;;;;;8.53;5.5;;;4.8;99.9;;;;;;;;;
2020/12/30 01:07:52;;;;;;;6.47;4.87;;;4.8;99.9;;;;;;;;;
2020/12/30 01:08:02;;;;;;;6.47;4.87;;;4.8;99.9;;;;;;;;;
2020/12/30 01:08:07;;;;;;;6.47;4.87;;;4.8;99.9;;;;;;;;;
2020/12/30 01:08:12;;;;;;;6.47;4.87;;;4.8;99.9;;;;;;;;;
2020/12/30 01:08:28;;;;;;;6.47;4.87;;;4.8;99.9;;;;;;;;;
2020/12/30 01:08:43;;;;;;;6.47;4.87;;;4.8;99.9;;;;;;;;;
2020/12/30 01:08:53;;;;;;;5.73;5.13;;;4.9;99.9;;;;;;;;;
2020/12/30 01:09:02;;;;;;;5.73;5.13;;;4.9;99.9;;;;;;;;;
2020/12/30 01:09:08;;;;;;;5.73;5.13;;;4.9;99.9;;;;;;;;;
2020/12/30 01:09:14;;;;;;;5.73;5.13;;;4.9;99.9;;;;;;;;;
2020/12/30 01:09:29;;;;;;;5.73;5.13;;;4.9;99.9;;;;;;;;;
2020/12/30 01:09:39;;;;;;;5.73;5.13;;;4.9;99.9;;;;;;;;;
2020/12/30 01:09:55;;;;;;;5.67;5.07;;;4.9;99.9;;;;;;;;;
2020/12/30 01:10:01;;;;;;;5.67;5.07;;;4.9;99.9;;;;;;;;;
2020/12/30 01:10:05;;;;;;;5.67;5.07;;;4.9;99.9;;;;;;;;;
2020/12/30 01:10:15;;;;;;;5.67;5.07;;;4.9;99.9;;;;;;;;;
2020/12/30 01:10:25;;;;;;;5.67;5.07;;;4.9;99.9;;;;;;;;;
2020/12/30 01:10:41;;;;;;;5.67;5.07;;;4.9;99.9;;;;;;;;;
2020/12/30 01:10:56;;;;;;;6.73;4.83;;;4.9;99.9;;;;;;;;;
2020/12/30 01:11:02;;;;;;;6.73;4.83;;;4.9;99.9;;;;;;;;;
2020/12/30 01:11:06;;;;;;;6.73;4.83;;;4.9;99.9;;;;;;;;;
2020/12/30 01:11:16;;;;;;;6.73;4.83;;;4.9;99.9;;;;;;;;;
2020/12/30 01:11:27;;;;;;;6.73;4.83;;;4.9;99.9;;;;;;;;;
2020/12/30 01:11:42;;;;;;;6.73;4.83;;;4.9;99.9;;;;;;;;;
2020/12/30 01:11:52;;;;;;;6.9;5.63;;;4.9;99.9;;;;;;;;;
2020/12/30 01:12:01;;;;;;;6.9;5.63;;;4.9;99.9;;;;;;;;;
2020/12/30 01:12:08;;;;;;;6.9;5.63;;;4.9;99.9;;;;;;;;;
2020/12/30 01:12:13;;;;;;;6.9;5.63;;;4.9;99.9;;;;;;;;;
2020/12/30 01:12:28;;;;;;;6.9;5.63;;;4.9;99.9;;;;;;;;;
2020/12/30 01:12:38;;;;;;;6.9;5.63;;;4.9;99.9;;;;;;;;;
2020/12/30 01:12:54;;;;;;;6.8;5.27;;;4.9;99.9;;;;;;;;;
2020/12/30 01:13:02;;;;;;;6.8;5.27;;;4.9;99.9;;;;;;;;;
2020/12/30 01:13:09;;;;;;;6.8;5.27;;;4.9;99.9;;;;;;;;;
2020/12/30 01:13:14;;;;;;;6.8;5.27;;;4.9;99.9;;;;;;;;;
2020/12/30 01:13:35;;;;;;;6.8;5.27;;;4.9;99.9;;;;;;;;;
2020/12/30 01:13:40;;;;;;;6.8;5.27;;;4.9;99.9;;;;;;;;;
2020/12/30 01:13:55;;;;;;;7.1;5.33;;;5;99.9;;;;;;;;;
2020/12/30 01:14:02;;;;;;;7.1;5.33;;;5;99.9;;;;;;;;;
2020/12/30 01:14:06;;;;;;;7.1;5.33;;;5;99.9;;;;;;;;;
2020/12/30 01:14:16;;;;;;;7.1;5.33;;;5;99.9;;;;;;;;;
2020/12/30 01:14:26;;;;;;;7.1;5.33;;;5;99.9;;;;;;;;;
2020/12/30 01:14:41;;;;;;;7.1;5.33;;;5;99.9;;;;;;;;;
2020/12/30 01:14:52;;;;;;;6.4;4.97;;;5.1;99.9;;;;;;;;;
2020/12/30 01:15:01;;;;;;;6.4;4.97;;;5.1;99.9;;;;;;;;;
2020/12/30 01:15:07;;;;;;;6.4;4.97;;;5.1;99.9;;;;;;;;;
2020/12/30 01:15:12;;;;;;;6.4;4.97;;;5.1;99.9;;;;;;;;;
2020/12/30 01:15:27;;;;;;;6.4;4.97;;;5.1;99.9;;;;;;;;;
2020/12/30 01:15:48;;;;;;;6.4;4.97;;;5.1;99.9;;;;;;;;;
2020/12/30 01:15:53;;;;;;;6.03;5.27;;;5.1;99.9;;;;;;;;;
2020/12/30 01:16:02;;;;;;;6.03;5.27;;;5.1;99.9;;;;;;;;;
2020/12/30 01:16:08;;;;;;;6.03;5.27;;;5.1;99.9;;;;;;;;;
2020/12/30 01:16:13;;;;;;;6.03;5.27;;;5.1;99.9;;;;;;;;;
2020/12/30 01:16:29;;;;;;;6.03;5.27;;;5.1;99.9;;;;;;;;;
2020/12/30 01:16:39;;;;;;;6.03;5.27;;;5.1;99.9;;;;;;;;;
2020/12/30 01:16:55;;;;;;;6.83;5.4;;;5.1;99.9;;;;;;;;;
2020/12/30 01:17:02;;;;;;;6.83;5.4;;;5.1;99.9;;;;;;;;;
2020/12/30 01:17:05;;;;;;;6.83;5.4;;;5.1;99.9;;;;;;;;;
2020/12/30 01:17:15;;;;;;;6.83;5.4;;;5.1;99.9;;;;;;;;;
2020/12/30 01:17:25;;;;;;;6.83;5.4;;;5.1;99.9;;;;;;;;;
2020/12/30 01:17:41;;;;;;;6.83;5.4;;;5.1;99.9;;;;;;;;;